sensor_id;sensor_type;location;lat;lon;timestamp;P1;durP1;ratioP1;P2;durP2;ratioP2
7330;SDS011;3706;49.198;7.064;2024-01-30T00:00:51;10.50;;;7.00;;
7330;SDS011;3706;49.198;7.064;2024-01-30T00:03:18;12.23;;;7.97;;
7330;SDS011;3706;49.198;7.064;2024-01-30T00:05:45;11.53;;;6.90;;
7330;SDS011;3706;49.198;7.064;2024-01-30T00:08:12;9.27;;;6.53;;
7330;SDS011;3706;49.198;7.064;2024-01-30T00:10:39;12.93;;;7.77;;
7330;SDS011;3706;49.198;7.064;2024-01-30T00:13:07;11.93;;;7.87;;
7330;SDS011;3706;49.198;7.064;2024-01-30T00:15:34;12.83;;;7.83;;
7330;SDS011;3706;49.198;7.064;2024-01-30T00:18:01;11.87;;;8.03;;
7330;SDS011;3706;49.198;7.064;2024-01-30T00:20:28;21.00;;;8.90;;
7330;SDS011;3706;49.198;7.064;2024-01-30T00:22:55;11.20;;;7.70;;
7330;SDS011;3706;49.198;7.064;2024-01-30T00:25:22;12.60;;;9.10;;
7330;SDS011;3706;49.198;7.064;2024-01-30T00:27:49;9.20;;;6.27;;
7330;SDS011;3706;49.198;7.064;2024-01-30T00:30:18;11.13;;;7.20;;
7330;SDS011;3706;49.198;7.064;2024-01-30T00:32:46;11.33;;;6.43;;
7330;SDS011;3706;49.198;7.064;2024-01-30T00:35:13;12.43;;;8.17;;
7330;SDS011;3706;49.198;7.064;2024-01-30T00:37:40;13.43;;;8.17;;
7330;SDS011;3706;49.198;7.064;2024-01-30T00:40:07;14.43;;;8.07;;
7330;SDS011;3706;49.198;7.064;2024-01-30T00:42:40;12.57;;;7.93;;
7330;SDS011;3706;49.198;7.064;2024-01-30T00:45:11;12.80;;;7.33;;
7330;SDS011;3706;49.198;7.064;2024-01-30T00:47:40;15.17;;;8.53;;
7330;SDS011;3706;49.198;7.064;2024-01-30T00:50:07;10.37;;;6.53;;
7330;SDS011;3706;49.198;7.064;2024-01-30T00:52:35;14.43;;;7.60;;
7330;SDS011;3706;49.198;7.064;2024-01-30T00:55:02;12.83;;;8.33;;
7330;SDS011;3706;49.198;7.064;2024-01-30T00:57:29;13.27;;;6.97;;
7330;SDS011;3706;49.198;7.064;2024-01-30T00:59:56;11.63;;;7.67;;
7330;SDS011;3706;49.198;7.064;2024-01-30T01:02:23;12.00;;;7.10;;
7330;SDS011;3706;49.198;7.064;2024-01-30T01:04:52;12.40;;;8.00;;
7330;SDS011;3706;49.198;7.064;2024-01-30T01:07:19;12.10;;;7.20;;
7330;SDS011;3706;49.198;7.064;2024-01-30T01:09:46;9.90;;;7.70;;
7330;SDS011;3706;49.198;7.064;2024-01-30T01:12:13;15.23;;;8.23;;
7330;SDS011;3706;49.198;7.064;2024-01-30T01:14:40;13.30;;;7.93;;
7330;SDS011;3706;49.198;7.064;2024-01-30T01:17:08;11.93;;;8.10;;
7330;SDS011;3706;49.198;7.064;2024-01-30T01:19:35;13.13;;;7.83;;
7330;SDS011;3706;49.198;7.064;2024-01-30T01:22:06;9.80;;;6.97;;
7330;SDS011;3706;49.198;7.064;2024-01-30T01:24:33;12.17;;;7.27;;
7330;SDS011;3706;49.198;7.064;2024-01-30T01:27:00;8.63;;;6.80;;
7330;SDS011;3706;49.198;7.064;2024-01-30T01:29:27;7.87;;;6.03;;
7330;SDS011;3706;49.198;7.064;2024-01-30T01:31:54;10.37;;;6.53;;
7330;SDS011;3706;49.198;7.064;2024-01-30T01:34:22;9.57;;;5.93;;
7330;SDS011;3706;49.198;7.064;2024-01-30T01:36:49;13.73;;;7.80;;
7330;SDS011;3706;49.198;7.064;2024-01-30T01:39:21;12.37;;;7.03;;
7330;SDS011;3706;49.198;7.064;2024-01-30T01:41:49;11.87;;;7.30;;
7330;SDS011;3706;49.198;7.064;2024-01-30T01:44:17;10.50;;;7.07;;
7330;SDS011;3706;49.198;7.064;2024-01-30T01:46:44;12.27;;;7.13;;
7330;SDS011;3706;49.198;7.064;2024-01-30T01:49:11;13.77;;;7.43;;
7330;SDS011;3706;49.198;7.064;2024-01-30T01:51:40;12.27;;;7.93;;
7330;SDS011;3706;49.198;7.064;2024-01-30T01:54:09;11.13;;;7.63;;
7330;SDS011;3706;49.198;7.064;2024-01-30T01:56:39;10.83;;;6.97;;
7330;SDS011;3706;49.198;7.064;2024-01-30T01:59:07;10.70;;;7.10;;
7330;SDS011;3706;49.198;7.064;2024-01-30T02:01:35;12.07;;;7.10;;
7330;SDS011;3706;49.198;7.064;2024-01-30T02:04:03;9.20;;;6.60;;
7330;SDS011;3706;49.198;7.064;2024-01-30T02:06:31;14.27;;;6.93;;
7330;SDS011;3706;49.198;7.064;2024-01-30T02:08:58;9.47;;;6.30;;
7330;SDS011;3706;49.198;7.064;2024-01-30T02:11:25;10.70;;;6.90;;
7330;SDS011;3706;49.198;7.064;2024-01-30T02:13:55;10.77;;;6.73;;
7330;SDS011;3706;49.198;7.064;2024-01-30T02:16:22;8.07;;;5.90;;
7330;SDS011;3706;49.198;7.064;2024-01-30T02:18:49;8.93;;;5.80;;
7330;SDS011;3706;49.198;7.064;2024-01-30T02:21:18;15.33;;;7.43;;
7330;SDS011;3706;49.198;7.064;2024-01-30T02:23:46;13.27;;;7.23;;
7330;SDS011;3706;49.198;7.064;2024-01-30T02:26:14;11.03;;;6.60;;
7330;SDS011;3706;49.198;7.064;2024-01-30T02:28:41;8.67;;;5.53;;
7330;SDS011;3706;49.198;7.064;2024-01-30T02:31:08;10.53;;;6.73;;
7330;SDS011;3706;49.198;7.064;2024-01-30T02:33:36;11.63;;;7.47;;
7330;SDS011;3706;49.198;7.064;2024-01-30T02:36:03;13.30;;;6.87;;
7330;SDS011;3706;49.198;7.064;2024-01-30T02:38:31;10.10;;;6.60;;
7330;SDS011;3706;49.198;7.064;2024-01-30T02:40:58;10.63;;;6.17;;
7330;SDS011;3706;49.198;7.064;2024-01-30T02:43:26;9.63;;;6.30;;
7330;SDS011;3706;49.198;7.064;2024-01-30T02:45:53;10.60;;;7.27;;
7330;SDS011;3706;49.198;7.064;2024-01-30T02:48:20;9.40;;;5.37;;
7330;SDS011;3706;49.198;7.064;2024-01-30T02:50:46;17.23;;;8.20;;
7330;SDS011;3706;49.198;7.064;2024-01-30T02:53:13;11.27;;;6.00;;
7330;SDS011;3706;49.198;7.064;2024-01-30T02:55:41;10.67;;;6.93;;
7330;SDS011;3706;49.198;7.064;2024-01-30T02:58:09;11.70;;;7.03;;
7330;SDS011;3706;49.198;7.064;2024-01-30T03:00:36;10.57;;;6.87;;
7330;SDS011;3706;49.198;7.064;2024-01-30T03:03:03;9.37;;;6.30;;
7330;SDS011;3706;49.198;7.064;2024-01-30T03:05:30;10.13;;;6.40;;
7330;SDS011;3706;49.198;7.064;2024-01-30T03:07:57;13.83;;;7.23;;
7330;SDS011;3706;49.198;7.064;2024-01-30T03:10:25;10.27;;;6.27;;
7330;SDS011;3706;49.198;7.064;2024-01-30T03:12:53;13.40;;;6.57;;
7330;SDS011;3706;49.198;7.064;2024-01-30T03:15:20;12.20;;;7.10;;
7330;SDS011;3706;49.198;7.064;2024-01-30T03:17:48;11.93;;;6.07;;
7330;SDS011;3706;49.198;7.064;2024-01-30T03:20:15;7.97;;;5.23;;
7330;SDS011;3706;49.198;7.064;2024-01-30T03:22:42;12.03;;;7.17;;
7330;SDS011;3706;49.198;7.064;2024-01-30T03:25:10;9.23;;;6.07;;
7330;SDS011;3706;49.198;7.064;2024-01-30T03:27:37;11.07;;;5.70;;
7330;SDS011;3706;49.198;7.064;2024-01-30T03:30:06;10.90;;;5.67;;
7330;SDS011;3706;49.198;7.064;2024-01-30T03:32:34;9.47;;;6.20;;
7330;SDS011;3706;49.198;7.064;2024-01-30T03:35:01;10.00;;;5.67;;
7330;SDS011;3706;49.198;7.064;2024-01-30T03:37:29;9.53;;;6.10;;
7330;SDS011;3706;49.198;7.064;2024-01-30T03:39:56;11.03;;;6.43;;
7330;SDS011;3706;49.198;7.064;2024-01-30T03:42:23;9.73;;;5.90;;
7330;SDS011;3706;49.198;7.064;2024-01-30T03:44:50;9.63;;;5.83;;
7330;SDS011;3706;49.198;7.064;2024-01-30T03:47:20;11.37;;;6.43;;
7330;SDS011;3706;49.198;7.064;2024-01-30T03:49:47;8.23;;;5.70;;
7330;SDS011;3706;49.198;7.064;2024-01-30T03:52:14;8.73;;;5.30;;
7330;SDS011;3706;49.198;7.064;2024-01-30T03:54:41;9.43;;;5.50;;
7330;SDS011;3706;49.198;7.064;2024-01-30T03:57:08;9.23;;;5.47;;
7330;SDS011;3706;49.198;7.064;2024-01-30T03:59:35;8.90;;;4.97;;
7330;SDS011;3706;49.198;7.064;2024-01-30T04:02:03;11.10;;;5.50;;
7330;SDS011;3706;49.198;7.064;2024-01-30T04:04:31;8.47;;;5.33;;
7330;SDS011;3706;49.198;7.064;2024-01-30T04:06:58;7.60;;;5.10;;
7330;SDS011;3706;49.198;7.064;2024-01-30T04:09:25;7.30;;;5.17;;
7330;SDS011;3706;49.198;7.064;2024-01-30T04:11:54;10.03;;;5.33;;
7330;SDS011;3706;49.198;7.064;2024-01-30T04:14:21;9.97;;;5.80;;
7330;SDS011;3706;49.198;7.064;2024-01-30T04:16:48;11.13;;;4.90;;
7330;SDS011;3706;49.198;7.064;2024-01-30T04:19:15;9.73;;;5.37;;
7330;SDS011;3706;49.198;7.064;2024-01-30T04:21:44;10.13;;;4.83;;
7330;SDS011;3706;49.198;7.064;2024-01-30T04:24:11;7.43;;;5.13;;
7330;SDS011;3706;49.198;7.064;2024-01-30T04:26:38;7.27;;;5.13;;
7330;SDS011;3706;49.198;7.064;2024-01-30T04:29:05;8.03;;;4.80;;
7330;SDS011;3706;49.198;7.064;2024-01-30T04:31:32;10.03;;;4.90;;
7330;SDS011;3706;49.198;7.064;2024-01-30T04:33:59;10.37;;;5.00;;
7330;SDS011;3706;49.198;7.064;2024-01-30T04:36:27;6.77;;;4.80;;
7330;SDS011;3706;49.198;7.064;2024-01-30T04:38:55;7.57;;;5.10;;
7330;SDS011;3706;49.198;7.064;2024-01-30T04:41:22;9.07;;;5.37;;
7330;SDS011;3706;49.198;7.064;2024-01-30T04:43:49;8.13;;;5.23;;
7330;SDS011;3706;49.198;7.064;2024-01-30T04:46:16;8.33;;;5.00;;
7330;SDS011;3706;49.198;7.064;2024-01-30T04:48:43;8.43;;;5.03;;
7330;SDS011;3706;49.198;7.064;2024-01-30T04:51:10;7.87;;;4.90;;
7330;SDS011;3706;49.198;7.064;2024-01-30T04:53:37;8.17;;;4.93;;
7330;SDS011;3706;49.198;7.064;2024-01-30T04:56:06;9.60;;;5.00;;
7330;SDS011;3706;49.198;7.064;2024-01-30T04:58:33;9.63;;;5.90;;
7330;SDS011;3706;49.198;7.064;2024-01-30T05:01:01;8.30;;;5.50;;
7330;SDS011;3706;49.198;7.064;2024-01-30T05:03:29;9.60;;;5.47;;
7330;SDS011;3706;49.198;7.064;2024-01-30T05:05:59;8.57;;;5.83;;
7330;SDS011;3706;49.198;7.064;2024-01-30T05:08:27;7.07;;;4.60;;
7330;SDS011;3706;49.198;7.064;2024-01-30T05:10:55;11.10;;;5.30;;
7330;SDS011;3706;49.198;7.064;2024-01-30T05:13:23;6.20;;;4.47;;
7330;SDS011;3706;49.198;7.064;2024-01-30T05:15:50;10.57;;;5.53;;
7330;SDS011;3706;49.198;7.064;2024-01-30T05:18:17;8.07;;;4.83;;
7330;SDS011;3706;49.198;7.064;2024-01-30T05:20:44;8.33;;;4.83;;
7330;SDS011;3706;49.198;7.064;2024-01-30T05:23:12;9.17;;;5.10;;
7330;SDS011;3706;49.198;7.064;2024-01-30T05:25:39;8.60;;;4.90;;
7330;SDS011;3706;49.198;7.064;2024-01-30T05:28:06;7.20;;;5.10;;
7330;SDS011;3706;49.198;7.064;2024-01-30T05:30:34;5.97;;;4.47;;
7330;SDS011;3706;49.198;7.064;2024-01-30T05:33:02;8.10;;;5.03;;
7330;SDS011;3706;49.198;7.064;2024-01-30T05:35:29;10.17;;;5.23;;
7330;SDS011;3706;49.198;7.064;2024-01-30T05:37:56;6.60;;;4.83;;
7330;SDS011;3706;49.198;7.064;2024-01-30T05:40:23;6.67;;;4.73;;
7330;SDS011;3706;49.198;7.064;2024-01-30T05:42:50;7.80;;;4.50;;
7330;SDS011;3706;49.198;7.064;2024-01-30T05:45:18;10.50;;;4.50;;
7330;SDS011;3706;49.198;7.064;2024-01-30T05:47:46;7.70;;;4.73;;
7330;SDS011;3706;49.198;7.064;2024-01-30T05:50:13;9.83;;;5.07;;
7330;SDS011;3706;49.198;7.064;2024-01-30T05:52:40;8.53;;;5.90;;
7330;SDS011;3706;49.198;7.064;2024-01-30T05:55:07;9.60;;;4.60;;
7330;SDS011;3706;49.198;7.064;2024-01-30T05:57:35;8.30;;;5.40;;
7330;SDS011;3706;49.198;7.064;2024-01-30T06:00:03;8.53;;;4.87;;
7330;SDS011;3706;49.198;7.064;2024-01-30T06:02:30;9.33;;;6.10;;
7330;SDS011;3706;49.198;7.064;2024-01-30T06:04:59;9.37;;;6.10;;
7330;SDS011;3706;49.198;7.064;2024-01-30T06:07:26;6.47;;;4.43;;
7330;SDS011;3706;49.198;7.064;2024-01-30T06:09:53;8.67;;;6.37;;
7330;SDS011;3706;49.198;7.064;2024-01-30T06:12:20;30.93;;;17.10;;
7330;SDS011;3706;49.198;7.064;2024-01-30T06:14:47;19.30;;;11.03;;
7330;SDS011;3706;49.198;7.064;2024-01-30T06:17:14;12.90;;;6.93;;
7330;SDS011;3706;49.198;7.064;2024-01-30T06:19:41;17.00;;;11.07;;
7330;SDS011;3706;49.198;7.064;2024-01-30T06:22:10;21.53;;;12.30;;
7330;SDS011;3706;49.198;7.064;2024-01-30T06:24:37;26.33;;;15.47;;
7330;SDS011;3706;49.198;7.064;2024-01-30T06:27:04;18.17;;;11.50;;
7330;SDS011;3706;49.198;7.064;2024-01-30T06:29:31;16.07;;;9.30;;
7330;SDS011;3706;49.198;7.064;2024-01-30T06:31:59;13.67;;;7.60;;
7330;SDS011;3706;49.198;7.064;2024-01-30T06:34:26;12.70;;;7.03;;
7330;SDS011;3706;49.198;7.064;2024-01-30T06:36:53;9.87;;;5.60;;
7330;SDS011;3706;49.198;7.064;2024-01-30T06:39:21;9.10;;;5.90;;
7330;SDS011;3706;49.198;7.064;2024-01-30T06:41:49;8.23;;;5.80;;
7330;SDS011;3706;49.198;7.064;2024-01-30T06:44:16;9.37;;;5.57;;
7330;SDS011;3706;49.198;7.064;2024-01-30T06:46:43;8.00;;;5.50;;
7330;SDS011;3706;49.198;7.064;2024-01-30T06:49:10;7.67;;;5.57;;
7330;SDS011;3706;49.198;7.064;2024-01-30T06:51:37;8.33;;;5.10;;
7330;SDS011;3706;49.198;7.064;2024-01-30T06:54:04;8.00;;;5.10;;
7330;SDS011;3706;49.198;7.064;2024-01-30T06:56:38;7.87;;;5.40;;
7330;SDS011;3706;49.198;7.064;2024-01-30T06:59:05;9.03;;;5.57;;
7330;SDS011;3706;49.198;7.064;2024-01-30T07:01:33;6.87;;;5.30;;
7330;SDS011;3706;49.198;7.064;2024-01-30T07:04:00;9.50;;;5.37;;
7330;SDS011;3706;49.198;7.064;2024-01-30T07:06:28;9.40;;;6.50;;
7330;SDS011;3706;49.198;7.064;2024-01-30T07:08:55;9.40;;;6.03;;
7330;SDS011;3706;49.198;7.064;2024-01-30T07:11:22;8.17;;;5.87;;
7330;SDS011;3706;49.198;7.064;2024-01-30T07:13:51;10.27;;;6.53;;
7330;SDS011;3706;49.198;7.064;2024-01-30T07:16:18;8.97;;;6.43;;
7330;SDS011;3706;49.198;7.064;2024-01-30T07:18:45;10.00;;;5.73;;
7330;SDS011;3706;49.198;7.064;2024-01-30T07:21:13;11.07;;;7.00;;
7330;SDS011;3706;49.198;7.064;2024-01-30T07:23:40;9.53;;;5.97;;
7330;SDS011;3706;49.198;7.064;2024-01-30T07:26:07;11.67;;;5.97;;
7330;SDS011;3706;49.198;7.064;2024-01-30T07:28:34;11.37;;;6.60;;
7330;SDS011;3706;49.198;7.064;2024-01-30T07:31:03;9.27;;;5.87;;
7330;SDS011;3706;49.198;7.064;2024-01-30T07:33:31;11.77;;;7.90;;
7330;SDS011;3706;49.198;7.064;2024-01-30T07:35:58;13.50;;;7.40;;
7330;SDS011;3706;49.198;7.064;2024-01-30T07:38:25;12.97;;;7.67;;
7330;SDS011;3706;49.198;7.064;2024-01-30T07:40:52;12.30;;;7.27;;
7330;SDS011;3706;49.198;7.064;2024-01-30T07:43:20;14.87;;;9.10;;
7330;SDS011;3706;49.198;7.064;2024-01-30T07:45:47;13.03;;;8.20;;
7330;SDS011;3706;49.198;7.064;2024-01-30T07:48:16;8.27;;;5.83;;
7330;SDS011;3706;49.198;7.064;2024-01-30T07:50:44;10.30;;;6.00;;
7330;SDS011;3706;49.198;7.064;2024-01-30T07:53:11;12.50;;;7.27;;
7330;SDS011;3706;49.198;7.064;2024-01-30T07:55:38;12.40;;;8.27;;
7330;SDS011;3706;49.198;7.064;2024-01-30T07:58:05;14.97;;;8.07;;
7330;SDS011;3706;49.198;7.064;2024-01-30T08:00:32;14.73;;;8.23;;
7330;SDS011;3706;49.198;7.064;2024-01-30T08:02:59;9.73;;;6.87;;
7330;SDS011;3706;49.198;7.064;2024-01-30T08:05:28;11.40;;;7.10;;
7330;SDS011;3706;49.198;7.064;2024-01-30T08:07:55;10.97;;;7.60;;
7330;SDS011;3706;49.198;7.064;2024-01-30T08:10:22;9.93;;;7.07;;
7330;SDS011;3706;49.198;7.064;2024-01-30T08:12:49;9.27;;;6.67;;
7330;SDS011;3706;49.198;7.064;2024-01-30T08:15:16;10.37;;;6.80;;
7330;SDS011;3706;49.198;7.064;2024-01-30T08:17:43;9.23;;;6.47;;
7330;SDS011;3706;49.198;7.064;2024-01-30T08:20:11;8.03;;;4.97;;
7330;SDS011;3706;49.198;7.064;2024-01-30T08:22:40;10.30;;;6.30;;
7330;SDS011;3706;49.198;7.064;2024-01-30T08:25:07;9.93;;;6.53;;
7330;SDS011;3706;49.198;7.064;2024-01-30T08:27:34;8.53;;;6.00;;
7330;SDS011;3706;49.198;7.064;2024-01-30T08:30:03;10.57;;;7.13;;
7330;SDS011;3706;49.198;7.064;2024-01-30T08:32:31;12.53;;;6.70;;
7330;SDS011;3706;49.198;7.064;2024-01-30T08:34:59;9.50;;;7.00;;
7330;SDS011;3706;49.198;7.064;2024-01-30T08:37:28;10.77;;;7.50;;
7330;SDS011;3706;49.198;7.064;2024-01-30T08:39:57;10.17;;;6.57;;
7330;SDS011;3706;49.198;7.064;2024-01-30T08:42:24;9.73;;;6.33;;
7330;SDS011;3706;49.198;7.064;2024-01-30T08:44:51;9.47;;;5.93;;
7330;SDS011;3706;49.198;7.064;2024-01-30T08:47:19;8.83;;;5.80;;
7330;SDS011;3706;49.198;7.064;2024-01-30T08:49:46;10.07;;;5.70;;
7330;SDS011;3706;49.198;7.064;2024-01-30T08:52:13;8.20;;;5.63;;
7330;SDS011;3706;49.198;7.064;2024-01-30T08:54:41;6.20;;;4.83;;
7330;SDS011;3706;49.198;7.064;2024-01-30T08:57:09;6.37;;;4.73;;
7330;SDS011;3706;49.198;7.064;2024-01-30T08:59:39;8.13;;;4.87;;
7330;SDS011;3706;49.198;7.064;2024-01-30T09:02:09;8.60;;;5.03;;
7330;SDS011;3706;49.198;7.064;2024-01-30T09:04:38;6.73;;;4.23;;
7330;SDS011;3706;49.198;7.064;2024-01-30T09:07:05;7.20;;;4.60;;
7330;SDS011;3706;49.198;7.064;2024-01-30T09:09:35;6.20;;;4.67;;
7330;SDS011;3706;49.198;7.064;2024-01-30T09:12:04;5.87;;;4.57;;
7330;SDS011;3706;49.198;7.064;2024-01-30T09:14:35;5.43;;;4.40;;
7330;SDS011;3706;49.198;7.064;2024-01-30T09:17:03;7.77;;;4.57;;
7330;SDS011;3706;49.198;7.064;2024-01-30T09:19:30;6.60;;;4.03;;
7330;SDS011;3706;49.198;7.064;2024-01-30T09:21:57;7.87;;;4.47;;
7330;SDS011;3706;49.198;7.064;2024-01-30T09:24:25;5.77;;;4.17;;
7330;SDS011;3706;49.198;7.064;2024-01-30T09:26:52;5.53;;;4.00;;
7330;SDS011;3706;49.198;7.064;2024-01-30T09:29:19;6.33;;;4.50;;
7330;SDS011;3706;49.198;7.064;2024-01-30T09:31:48;8.20;;;4.93;;
7330;SDS011;3706;49.198;7.064;2024-01-30T09:34:15;7.33;;;4.53;;
7330;SDS011;3706;49.198;7.064;2024-01-30T09:36:43;8.83;;;4.63;;
7330;SDS011;3706;49.198;7.064;2024-01-30T09:39:10;5.80;;;4.53;;
7330;SDS011;3706;49.198;7.064;2024-01-30T09:41:39;6.10;;;4.70;;
7330;SDS011;3706;49.198;7.064;2024-01-30T09:44:11;7.67;;;4.63;;
7330;SDS011;3706;49.198;7.064;2024-01-30T09:46:38;7.03;;;4.80;;
7330;SDS011;3706;49.198;7.064;2024-01-30T09:49:07;6.53;;;4.50;;
7330;SDS011;3706;49.198;7.064;2024-01-30T09:51:35;8.40;;;4.97;;
7330;SDS011;3706;49.198;7.064;2024-01-30T09:54:02;7.57;;;5.30;;
7330;SDS011;3706;49.198;7.064;2024-01-30T09:56:30;8.27;;;4.77;;
7330;SDS011;3706;49.198;7.064;2024-01-30T09:58:57;10.40;;;4.93;;
7330;SDS011;3706;49.198;7.064;2024-01-30T10:01:24;6.73;;;4.73;;
7330;SDS011;3706;49.198;7.064;2024-01-30T10:03:53;9.80;;;5.03;;
7330;SDS011;3706;49.198;7.064;2024-01-30T10:06:21;8.00;;;4.93;;
7330;SDS011;3706;49.198;7.064;2024-01-30T10:08:51;7.47;;;4.77;;
7330;SDS011;3706;49.198;7.064;2024-01-30T10:11:17;7.60;;;4.83;;
7330;SDS011;3706;49.198;7.064;2024-01-30T10:13:44;8.00;;;4.80;;
7330;SDS011;3706;49.198;7.064;2024-01-30T10:16:13;7.63;;;5.73;;
7330;SDS011;3706;49.198;7.064;2024-01-30T10:18:41;7.40;;;4.90;;
7330;SDS011;3706;49.198;7.064;2024-01-30T10:21:08;8.33;;;5.30;;
7330;SDS011;3706;49.198;7.064;2024-01-30T10:23:37;6.80;;;5.13;;
7330;SDS011;3706;49.198;7.064;2024-01-30T10:26:04;6.90;;;4.60;;
7330;SDS011;3706;49.198;7.064;2024-01-30T10:28:33;6.50;;;4.70;;
7330;SDS011;3706;49.198;7.064;2024-01-30T10:31:00;8.70;;;5.23;;
7330;SDS011;3706;49.198;7.064;2024-01-30T10:33:28;7.27;;;4.90;;
7330;SDS011;3706;49.198;7.064;2024-01-30T10:35:56;10.57;;;4.77;;
7330;SDS011;3706;49.198;7.064;2024-01-30T10:38:28;10.00;;;5.50;;
7330;SDS011;3706;49.198;7.064;2024-01-30T10:40:58;8.30;;;4.87;;
7330;SDS011;3706;49.198;7.064;2024-01-30T10:43:28;8.47;;;5.53;;
7330;SDS011;3706;49.198;7.064;2024-01-30T10:45:59;6.73;;;4.53;;
7330;SDS011;3706;49.198;7.064;2024-01-30T10:48:31;7.13;;;4.83;;
7330;SDS011;3706;49.198;7.064;2024-01-30T10:51:05;6.67;;;4.93;;
7330;SDS011;3706;49.198;7.064;2024-01-30T10:53:32;7.00;;;5.23;;
7330;SDS011;3706;49.198;7.064;2024-01-30T10:56:02;8.90;;;5.23;;
7330;SDS011;3706;49.198;7.064;2024-01-30T10:58:30;7.17;;;5.03;;
7330;SDS011;3706;49.198;7.064;2024-01-30T11:00:57;7.47;;;4.70;;
7330;SDS011;3706;49.198;7.064;2024-01-30T11:03:25;9.80;;;5.13;;
7330;SDS011;3706;49.198;7.064;2024-01-30T11:06:03;9.17;;;5.53;;
7330;SDS011;3706;49.198;7.064;2024-01-30T11:08:31;7.30;;;4.77;;
7330;SDS011;3706;49.198;7.064;2024-01-30T11:10:59;7.70;;;4.80;;
7330;SDS011;3706;49.198;7.064;2024-01-30T11:13:28;11.73;;;5.03;;
7330;SDS011;3706;49.198;7.064;2024-01-30T11:15:59;7.87;;;5.23;;
7330;SDS011;3706;49.198;7.064;2024-01-30T11:18:28;8.40;;;5.20;;
7330;SDS011;3706;49.198;7.064;2024-01-30T11:20:57;8.03;;;5.17;;
7330;SDS011;3706;49.198;7.064;2024-01-30T11:23:26;7.77;;;5.50;;
7330;SDS011;3706;49.198;7.064;2024-01-30T11:25:53;8.53;;;5.03;;
7330;SDS011;3706;49.198;7.064;2024-01-30T11:28:21;7.60;;;5.17;;
7330;SDS011;3706;49.198;7.064;2024-01-30T11:30:50;8.10;;;5.47;;
7330;SDS011;3706;49.198;7.064;2024-01-30T11:33:27;6.13;;;5.00;;
7330;SDS011;3706;49.198;7.064;2024-01-30T11:35:56;8.80;;;4.87;;
7330;SDS011;3706;49.198;7.064;2024-01-30T11:38:25;6.67;;;5.03;;
7330;SDS011;3706;49.198;7.064;2024-01-30T11:40:54;6.57;;;5.20;;
7330;SDS011;3706;49.198;7.064;2024-01-30T11:43:22;8.33;;;4.83;;
7330;SDS011;3706;49.198;7.064;2024-01-30T11:45:51;7.90;;;5.50;;
7330;SDS011;3706;49.198;7.064;2024-01-30T11:48:18;7.30;;;5.37;;
7330;SDS011;3706;49.198;7.064;2024-01-30T11:50:45;8.67;;;5.00;;
7330;SDS011;3706;49.198;7.064;2024-01-30T11:53:13;8.67;;;5.00;;
7330;SDS011;3706;49.198;7.064;2024-01-30T11:55:40;8.20;;;4.93;;
7330;SDS011;3706;49.198;7.064;2024-01-30T11:58:08;7.73;;;5.20;;
7330;SDS011;3706;49.198;7.064;2024-01-30T12:00:35;6.90;;;4.80;;
7330;SDS011;3706;49.198;7.064;2024-01-30T12:03:04;8.17;;;4.73;;
7330;SDS011;3706;49.198;7.064;2024-01-30T12:05:32;11.20;;;5.23;;
7330;SDS011;3706;49.198;7.064;2024-01-30T12:07:59;8.80;;;5.10;;
7330;SDS011;3706;49.198;7.064;2024-01-30T12:10:26;11.33;;;5.03;;
7330;SDS011;3706;49.198;7.064;2024-01-30T12:12:53;7.97;;;4.47;;
7330;SDS011;3706;49.198;7.064;2024-01-30T12:15:21;8.00;;;5.20;;
7330;SDS011;3706;49.198;7.064;2024-01-30T12:17:49;7.73;;;5.33;;
7330;SDS011;3706;49.198;7.064;2024-01-30T12:20:18;6.43;;;4.60;;
7330;SDS011;3706;49.198;7.064;2024-01-30T12:22:47;9.87;;;5.13;;
7330;SDS011;3706;49.198;7.064;2024-01-30T12:25:15;6.90;;;4.40;;
7330;SDS011;3706;49.198;7.064;2024-01-30T12:27:46;9.97;;;4.60;;
7330;SDS011;3706;49.198;7.064;2024-01-30T12:30:15;6.73;;;5.00;;
7330;SDS011;3706;49.198;7.064;2024-01-30T12:32:43;7.57;;;5.23;;
7330;SDS011;3706;49.198;7.064;2024-01-30T12:35:12;7.23;;;4.47;;
7330;SDS011;3706;49.198;7.064;2024-01-30T12:37:41;7.37;;;4.50;;
7330;SDS011;3706;49.198;7.064;2024-01-30T12:40:10;7.43;;;5.20;;
7330;SDS011;3706;49.198;7.064;2024-01-30T12:42:39;6.10;;;4.93;;
7330;SDS011;3706;49.198;7.064;2024-01-30T12:45:08;7.67;;;5.17;;
7330;SDS011;3706;49.198;7.064;2024-01-30T12:47:35;7.70;;;4.87;;
7330;SDS011;3706;49.198;7.064;2024-01-30T12:50:02;7.47;;;5.20;;
7330;SDS011;3706;49.198;7.064;2024-01-30T12:52:30;5.57;;;4.60;;
7330;SDS011;3706;49.198;7.064;2024-01-30T12:54:58;6.47;;;4.80;;
7330;SDS011;3706;49.198;7.064;2024-01-30T12:57:25;10.90;;;5.10;;
7330;SDS011;3706;49.198;7.064;2024-01-30T12:59:53;8.37;;;4.93;;
7330;SDS011;3706;49.198;7.064;2024-01-30T13:02:20;6.07;;;4.47;;
7330;SDS011;3706;49.198;7.064;2024-01-30T13:04:47;7.13;;;5.33;;
7330;SDS011;3706;49.198;7.064;2024-01-30T13:07:14;7.00;;;4.97;;
7330;SDS011;3706;49.198;7.064;2024-01-30T13:09:42;7.27;;;5.10;;
7330;SDS011;3706;49.198;7.064;2024-01-30T13:12:10;8.07;;;4.90;;
7330;SDS011;3706;49.198;7.064;2024-01-30T13:14:37;7.33;;;4.77;;
7330;SDS011;3706;49.198;7.064;2024-01-30T13:17:04;7.13;;;4.80;;
7330;SDS011;3706;49.198;7.064;2024-01-30T13:19:32;7.13;;;4.37;;
7330;SDS011;3706;49.198;7.064;2024-01-30T13:21:59;6.53;;;4.90;;
7330;SDS011;3706;49.198;7.064;2024-01-30T13:24:26;10.03;;;5.20;;
7330;SDS011;3706;49.198;7.064;2024-01-30T13:26:53;8.10;;;5.00;;
7330;SDS011;3706;49.198;7.064;2024-01-30T13:29:21;8.27;;;5.20;;
7330;SDS011;3706;49.198;7.064;2024-01-30T13:31:48;10.37;;;5.47;;
7330;SDS011;3706;49.198;7.064;2024-01-30T13:34:15;7.33;;;5.10;;
7330;SDS011;3706;49.198;7.064;2024-01-30T13:36:42;8.67;;;5.60;;
7330;SDS011;3706;49.198;7.064;2024-01-30T13:39:10;7.30;;;5.20;;
7330;SDS011;3706;49.198;7.064;2024-01-30T13:41:37;8.87;;;5.40;;
7330;SDS011;3706;49.198;7.064;2024-01-30T13:44:04;8.27;;;5.50;;
7330;SDS011;3706;49.198;7.064;2024-01-30T13:46:33;7.30;;;4.80;;
7330;SDS011;3706;49.198;7.064;2024-01-30T13:49:00;8.93;;;5.57;;
7330;SDS011;3706;49.198;7.064;2024-01-30T13:51:27;7.60;;;5.17;;
7330;SDS011;3706;49.198;7.064;2024-01-30T13:53:55;10.30;;;5.00;;
7330;SDS011;3706;49.198;7.064;2024-01-30T13:56:22;6.67;;;5.27;;
7330;SDS011;3706;49.198;7.064;2024-01-30T13:58:49;6.97;;;5.40;;
7330;SDS011;3706;49.198;7.064;2024-01-30T14:01:17;7.67;;;5.10;;
7330;SDS011;3706;49.198;7.064;2024-01-30T14:03:45;9.00;;;4.97;;
7330;SDS011;3706;49.198;7.064;2024-01-30T14:06:12;12.97;;;5.90;;
7330;SDS011;3706;49.198;7.064;2024-01-30T14:08:39;8.07;;;5.33;;
7330;SDS011;3706;49.198;7.064;2024-01-30T14:11:07;11.17;;;5.73;;
7330;SDS011;3706;49.198;7.064;2024-01-30T14:13:34;9.40;;;6.03;;
7330;SDS011;3706;49.198;7.064;2024-01-30T14:16:02;11.73;;;5.70;;
7330;SDS011;3706;49.198;7.064;2024-01-30T14:18:29;8.13;;;5.57;;
7330;SDS011;3706;49.198;7.064;2024-01-30T14:20:57;10.50;;;5.63;;
7330;SDS011;3706;49.198;7.064;2024-01-30T14:23:24;8.57;;;5.37;;
7330;SDS011;3706;49.198;7.064;2024-01-30T14:25:51;7.50;;;5.30;;
7330;SDS011;3706;49.198;7.064;2024-01-30T14:28:18;8.67;;;5.47;;
7330;SDS011;3706;49.198;7.064;2024-01-30T14:30:48;10.07;;;5.87;;
7330;SDS011;3706;49.198;7.064;2024-01-30T14:33:15;8.07;;;5.80;;
7330;SDS011;3706;49.198;7.064;2024-01-30T14:35:42;8.83;;;5.80;;
7330;SDS011;3706;49.198;7.064;2024-01-30T14:38:11;24.33;;;13.10;;
7330;SDS011;3706;49.198;7.064;2024-01-30T14:40:38;12.50;;;7.77;;
7330;SDS011;3706;49.198;7.064;2024-01-30T14:43:05;10.13;;;6.53;;
7330;SDS011;3706;49.198;7.064;2024-01-30T14:45:32;12.83;;;7.40;;
7330;SDS011;3706;49.198;7.064;2024-01-30T14:48:00;10.07;;;6.57;;
7330;SDS011;3706;49.198;7.064;2024-01-30T14:50:29;7.90;;;6.23;;
7330;SDS011;3706;49.198;7.064;2024-01-30T14:52:56;10.57;;;6.80;;
7330;SDS011;3706;49.198;7.064;2024-01-30T14:55:25;8.47;;;6.40;;
7330;SDS011;3706;49.198;7.064;2024-01-30T14:57:52;10.33;;;6.40;;
7330;SDS011;3706;49.198;7.064;2024-01-30T15:00:19;8.97;;;6.40;;
7330;SDS011;3706;49.198;7.064;2024-01-30T15:02:46;10.00;;;6.20;;
7330;SDS011;3706;49.198;7.064;2024-01-30T15:05:13;9.57;;;6.07;;
7330;SDS011;3706;49.198;7.064;2024-01-30T15:07:41;9.70;;;5.87;;
7330;SDS011;3706;49.198;7.064;2024-01-30T15:10:08;8.80;;;5.97;;
7330;SDS011;3706;49.198;7.064;2024-01-30T15:12:37;9.90;;;6.10;;